Madison, Wisconsin
Current Conditions -  °F | °C
As of 8:53 AM on Friday 24 Oct 2014 (Local Time) from KMSN Reporting Station
Haze Haze  
Wind Chill: 10°   Ceiling: 200
Heat Index: 10°   Visibility: 0.75mi
Dew Point:   Wind: 6mph
Humidity: 93%   Direction: 190°S
Pressure: 30.04"   Gusts: NA
Location:  43.07°N, 89.39°W
Report Text: KMSN 241353Z 19005KT 3/4SM R36/P6000FT BR OVC002 10/09 A3004 RMK AO2 SLP176 T01000089
Loading
Personal Weather Stations






























Interactive Weather Map
Tropical Storm Tracking
New forecast layout! Learn more

10-Day Weather Forecast

Advertisements
Track Severe Weather on mobile